Orbital elements of FENGYUN 1C DEB
| Launched | 9 May 1999 |
| Flight ended | – |
| Launch site | Taiyuan Space Center, PRC |
| Owner | People's Republic of China |
| NORAD ID | 30647 |
| Date fetched |
Epoch osculation |
Inc. [°] |
Ecc. | RA asc node [hr] |
Arg Peri. [°] |
Mean anom [°] |
Mean motion [rev/day] |
Abs. mag |
| Date fetched |
Epoch osculation |
Inc. [°] |
Ecc. | RA asc node [hr] |
Arg Peri. [°] |
Mean anom [°] |
Mean motion [rev/day] |
Abs. mag |
| 2026 May 07 17:58 | 2026 May 05 08:54:46 | 98.9961 | 0.00302 | 4.9380 | 96.4384 | 63.7181 | 14.60196 | – |
| 2026 May 06 17:57 | 2026 May 05 08:54:46 | 98.9961 | 0.00302 | 4.9380 | 96.4384 | 63.7181 | 14.60196 | – |
| 2026 May 05 17:57 | 2026 May 05 08:54:46 | 98.9961 | 0.00302 | 4.9380 | 96.4384 | 63.7181 | 14.60196 | – |
| 2026 May 04 17:57 | 2026 Apr 30 08:50:57 | 98.9953 | 0.00297 | 4.5763 | 110.5078 | 63.7181 | 14.60196 | – |
| 2026 May 03 17:57 | 2026 Apr 30 08:50:57 | 98.9953 | 0.00297 | 4.5763 | 110.5078 | 63.7181 | 14.60196 | – |
| 2026 May 02 17:57 | 2026 Apr 30 08:50:57 | 98.9953 | 0.00297 | 4.5763 | 110.5078 | 63.7181 | 14.60196 | – |
| 2026 May 01 17:56 | 2026 Apr 30 08:50:57 | 98.9953 | 0.00297 | 4.5763 | 110.5078 | 63.7181 | 14.60196 | – |
| 2026 Apr 30 17:56 | 2026 Apr 30 08:50:57 | 98.9953 | 0.00297 | 4.5763 | 110.5078 | 63.7181 | 14.60196 | – |
| 2026 Apr 29 17:57 | 2026 Apr 24 08:04:30 | 98.9946 | 0.00289 | 4.1402 | 128.1267 | 63.7181 | 14.60196 | – |
| 2026 Apr 28 17:56 | 2026 Apr 24 08:04:30 | 98.9946 | 0.00289 | 4.1402 | 128.1267 | 63.7181 | 14.60196 | – |
| 2026 Apr 27 17:58 | 2026 Apr 24 08:04:30 | 98.9946 | 0.00289 | 4.1402 | 128.1267 | 63.7181 | 14.60196 | – |
| 2026 Apr 26 17:58 | 2026 Apr 24 08:04:30 | 98.9946 | 0.00289 | 4.1402 | 128.1267 | 63.7181 | 14.60196 | – |
| 2026 Apr 25 17:58 | 2026 Apr 24 08:04:30 | 98.9946 | 0.00289 | 4.1402 | 128.1267 | 63.7181 | 14.60196 | – |
| 2026 Apr 24 17:59 | 2026 Apr 24 08:04:30 | 98.9946 | 0.00289 | 4.1402 | 128.1267 | 63.7181 | 14.60196 | – |
| 2026 Apr 23 17:57 | 2026 Apr 19 08:00:22 | 98.9956 | 0.00282 | 3.7787 | 143.3423 | 63.7181 | 14.60196 | – |
| 2026 Apr 22 17:57 | 2026 Apr 19 08:00:22 | 98.9956 | 0.00282 | 3.7787 | 143.3423 | 63.7181 | 14.60196 | – |
| 2026 Apr 21 17:57 | 2026 Apr 19 08:00:22 | 98.9956 | 0.00282 | 3.7787 | 143.3423 | 63.7181 | 14.60196 | – |
| 2026 Apr 20 17:57 | 2026 Apr 19 08:00:22 | 98.9956 | 0.00282 | 3.7787 | 143.3423 | 63.7181 | 14.60196 | – |
| 2026 Apr 19 17:58 | 2026 Apr 19 08:00:22 | 98.9956 | 0.00282 | 3.7787 | 143.3423 | 63.7181 | 14.60196 | – |
| 2026 Apr 18 17:56 | 2026 Apr 12 14:53:53 | 98.9938 | 0.00273 | 3.2936 | 164.4934 | 63.7181 | 14.60196 | – |
| 2026 Apr 16 17:57 | 2026 Apr 12 14:53:53 | 98.9938 | 0.00273 | 3.2936 | 164.4934 | 63.7181 | 14.60196 | – |
| 2026 Apr 14 17:57 | 2026 Apr 12 14:53:53 | 98.9938 | 0.00273 | 3.2936 | 164.4934 | 63.7181 | 14.60196 | – |
| 2026 Apr 13 17:57 | 2026 Apr 12 14:53:53 | 98.9938 | 0.00273 | 3.2936 | 164.4934 | 63.7181 | 14.60196 | – |
| 2026 Apr 12 17:57 | 2026 Apr 07 08:07:25 | 98.9948 | 0.00267 | 2.9120 | 181.4351 | 63.7181 | 14.60196 | – |
| 2026 Apr 11 17:57 | 2026 Apr 07 08:07:25 | 98.9948 | 0.00267 | 2.9120 | 181.4351 | 63.7181 | 14.60196 | – |
| 2026 Apr 10 17:58 | 2026 Apr 07 08:07:25 | 98.9948 | 0.00267 | 2.9120 | 181.4351 | 63.7181 | 14.60196 | – |